Time;durP1;ratioP1;P1;durP2;ratioP2;P2;SDS_P1;SDS_P2;PMS_P1;PMS_P2;Temp;Humidity;BMP_temperature;BMP_pressure;BME280_temperature;BME280_humidity;BME280_pressure;Samples;Min_cycle;Max_cycle;Signal;HPM_P1;HPM_P2
2023/02/16 00:00:28;;;;;;;30.20;17.67;;;3.30;99.90;;;;;;5094789;28;20897;-84
2023/02/16 00:02:54;;;;;;;29.37;15.03;;;3.30;99.90;;;;;;5096787;28;20206;-84
2023/02/16 00:05:25;;;;;;;31.70;15.47;;;3.30;99.90;;;;;;5095290;28;20201;-83
2023/02/16 00:07:52;;;;;;;30.83;16.27;;;3.30;99.90;;;;;;5095746;28;20279;-84
2023/02/16 00:10:19;;;;;;;31.20;15.87;;;3.30;99.90;;;;;;5097069;28;20217;-83
2023/02/16 00:15:32;;;;;;;31.23;16.07;;;3.20;99.90;;;;;;5095002;28;20212;-84
2023/02/16 00:18:01;;;;;;;31.60;16.03;;;3.40;99.90;;;;;;5096413;28;20593;-84
2023/02/16 00:20:30;;;;;;;33.80;17.27;;;3.50;99.90;;;;;;5094043;28;20200;-84
2023/02/16 00:22:56;;;;;;;31.87;17.03;;;3.40;99.90;;;;;;5085890;28;20197;-84
2023/02/16 00:25:24;;;;;;;30.67;15.97;;;3.50;99.90;;;;;;5078575;28;20205;-84
2023/02/16 00:27:51;;;;;;;31.80;16.50;;;3.30;99.90;;;;;;5091866;28;20221;-84
2023/02/16 00:30:20;;;;;;;33.60;17.07;;;3.30;99.90;;;;;;5094712;28;20217;-84
2023/02/16 00:32:48;;;;;;;31.13;15.63;;;3.20;99.90;;;;;;5094497;28;20201;-84
2023/02/16 00:35:16;;;;;;;33.23;16.53;;;3.10;99.90;;;;;;5095708;28;20206;-84
2023/02/16 00:37:43;;;;;;;29.57;16.10;;;3.20;99.90;;;;;;5093561;28;20409;-84
2023/02/16 00:40:11;;;;;;;31.87;18.70;;;3.10;99.90;;;;;;5093582;28;20605;-84
2023/02/16 00:42:38;;;;;;;32.03;17.33;;;3.10;99.90;;;;;;5094462;28;20374;-84
2023/02/16 00:45:13;;;;;;;31.50;15.30;;;3.00;99.90;;;;;;5090517;28;20492;-84
2023/02/16 00:47:43;;;;;;;31.50;16.97;;;2.90;99.90;;;;;;5078232;28;20223;-84
2023/02/16 00:50:17;;;;;;;32.17;15.83;;;2.80;99.90;;;;;;5080095;28;20346;-84
2023/02/16 00:52:45;;;;;;;33.50;16.27;;;2.70;99.90;;;;;;5093883;28;20713;-84
2023/02/16 00:55:15;;;;;;;35.23;17.53;;;2.70;99.90;;;;;;5093949;28;20536;-84
2023/02/16 00:57:45;;;;;;;32.13;16.03;;;2.90;99.90;;;;;;5095451;28;20255;-84
2023/02/16 01:00:17;;;;;;;34.60;16.53;;;3.00;99.90;;;;;;5094422;28;20285;-84
2023/02/16 01:02:45;;;;;;;30.50;16.13;;;3.10;99.90;;;;;;5095398;28;20570;-84
2023/02/16 01:05:12;;;;;;;32.90;16.67;;;3.20;99.90;;;;;;5093299;28;20202;-84
2023/02/16 01:13:12;;;;;;;30.63;15.83;;;3.10;99.90;;;;;;5095431;28;20282;-84
2023/02/16 01:15:39;;;;;;;32.30;16.03;;;3.10;99.90;;;;;;5095475;28;20206;-84
2023/02/16 01:18:06;;;;;;;33.03;16.63;;;3.10;99.90;;;;;;5095724;28;20221;-84
2023/02/16 01:20:35;;;;;;;31.50;16.30;;;3.10;99.90;;;;;;5095430;28;20904;-84
2023/02/16 01:23:03;;;;;;;35.60;17.73;;;3.10;99.90;;;;;;5095684;28;20209;-84
2023/02/16 01:25:30;;;;;;;34.60;17.50;;;3.10;99.90;;;;;;5094940;28;20212;-84
2023/02/16 01:27:57;;;;;;;31.97;17.97;;;3.20;99.90;;;;;;5094937;28;20210;-84
2023/02/16 01:30:26;;;;;;;34.83;18.13;;;3.10;99.90;;;;;;5095343;28;20228;-84
2023/02/16 01:32:52;;;;;;;35.50;18.63;;;3.10;99.90;;;;;;5094962;28;20208;-84
2023/02/16 01:35:20;;;;;;;32.20;17.57;;;3.10;99.90;;;;;;5100896;28;20224;-84
2023/02/16 01:37:47;;;;;;;35.53;19.17;;;2.90;99.90;;;;;;5100006;28;20221;-84
2023/02/16 01:40:26;;;;;;;33.27;18.07;;;3.00;99.90;;;;;;5100748;28;20219;-84
2023/02/16 01:42:58;;;;;;;34.97;17.93;;;3.10;99.90;;;;;;5091307;28;20208;-84
2023/02/16 01:45:32;;;;;;;33.70;18.10;;;3.20;99.90;;;;;;5096580;28;20208;-84
2023/02/16 01:48:04;;;;;;;32.10;17.57;;;3.00;99.90;;;;;;5100817;28;20285;-84
2023/02/16 01:50:42;;;;;;;34.27;18.20;;;3.10;99.90;;;;;;5099349;28;20217;-84
2023/02/16 01:53:20;;;;;;;33.53;18.20;;;2.80;99.90;;;;;;5100699;28;20217;-84
2023/02/16 01:55:55;;;;;;;35.57;19.33;;;3.00;99.90;;;;;;5101301;28;20197;-84
2023/02/16 01:58:31;;;;;;;34.93;18.10;;;3.00;99.90;;;;;;5099894;28;20197;-84
2023/02/16 02:01:34;;;;;;;34.17;17.90;;;3.00;99.90;;;;;;5090026;28;20626;-84
2023/02/16 02:06:46;;;;;;;32.13;17.67;;;2.80;99.90;;;;;;5094241;28;20223;-84
2023/02/16 02:09:20;;;;;;;35.53;17.97;;;2.70;99.90;;;;;;5101900;28;20205;-84
2023/02/16 02:11:54;;;;;;;37.23;19.07;;;2.60;99.90;;;;;;5099975;28;20221;-84
2023/02/16 02:14:26;;;;;;;37.83;19.50;;;2.60;99.90;;;;;;5101724;28;20197;-84
2023/02/16 02:16:56;;;;;;;35.00;17.50;;;2.90;99.90;;;;;;5094635;28;20312;-84
2023/02/16 02:19:23;;;;;;;37.03;19.30;;;2.80;99.90;;;;;;5101840;28;20289;-84
2023/02/16 02:25:22;;;;;;;38.30;22.27;;;2.90;99.90;;;;;;5098899;28;20322;-84
2023/02/16 02:27:57;;;;;;;41.27;21.77;;;3.20;99.90;;;;;;5100385;28;20221;-84
2023/02/16 02:30:39;;;;;;;39.73;20.30;;;3.30;99.90;;;;;;5101604;28;20570;-84
2023/02/16 02:33:24;;;;;;;40.10;23.90;;;3.40;99.90;;;;;;5096290;28;20198;-84
2023/02/16 02:35:58;;;;;;;40.07;20.67;;;3.50;99.90;;;;;;5098163;28;20194;-84
2023/02/16 02:38:30;;;;;;;40.93;21.80;;;3.40;99.90;;;;;;5088504;28;20193;-84
2023/02/16 02:41:04;;;;;;;40.00;20.93;;;3.50;99.90;;;;;;5100611;28;20198;-84
2023/02/16 02:43:38;;;;;;;38.53;21.50;;;3.50;99.90;;;;;;5100814;28;20212;-84
2023/02/16 02:46:10;;;;;;;38.43;21.33;;;3.40;99.90;;;;;;5091743;28;20195;-84
2023/02/16 02:48:37;;;;;;;41.63;21.40;;;3.50;99.90;;;;;;5079349;28;20233;-84
2023/02/16 02:51:29;;;;;;;40.60;21.40;;;3.60;99.90;;;;;;5091046;28;20220;-84
2023/02/16 03:02:16;;;;;;;41.80;22.40;;;3.40;99.90;;;;;;5077311;28;20196;-84
2023/02/16 03:04:45;;;;;;;39.90;21.27;;;3.60;99.90;;;;;;5092003;28;20277;-84
2023/02/16 03:07:14;;;;;;;41.13;21.67;;;3.60;99.90;;;;;;5095922;28;20214;-84
2023/02/16 03:09:41;;;;;;;42.07;22.43;;;3.40;99.90;;;;;;5097744;28;20208;-84
2023/02/16 03:14:57;;;;;;;42.40;21.77;;;3.40;99.90;;;;;;5097392;28;20204;-84
2023/02/16 03:31:23;;;;;;;42.53;22.13;;;3.10;99.90;;;;;;5096703;28;20271;-84
2023/02/16 03:33:53;;;;;;;40.83;21.70;;;3.00;99.90;;;;;;5094528;28;20638;-84
2023/02/16 03:36:21;;;;;;;42.53;22.63;;;3.00;99.90;;;;;;5095462;28;20233;-84
2023/02/16 03:38:48;;;;;;;39.93;21.50;;;3.00;99.90;;;;;;5096911;28;20198;-84
2023/02/16 03:41:14;;;;;;;44.20;22.83;;;3.00;99.90;;;;;;5089449;28;20205;-84
2023/02/16 03:43:41;;;;;;;40.53;22.37;;;2.90;99.90;;;;;;5083161;28;20213;-84
2023/02/16 03:46:08;;;;;;;41.57;22.03;;;2.90;99.90;;;;;;5090094;28;20202;-84
2023/02/16 03:48:36;;;;;;;42.97;22.37;;;2.90;99.90;;;;;;5081150;28;20209;-83
2023/02/16 03:51:03;;;;;;;43.93;22.90;;;2.90;99.90;;;;;;5093930;28;20228;-84
2023/02/16 03:53:30;;;;;;;46.50;23.17;;;3.00;99.90;;;;;;5095186;28;20198;-84
2023/02/16 03:55:57;;;;;;;44.37;23.00;;;3.00;99.90;;;;;;5095904;28;20206;-83
2023/02/16 03:58:25;;;;;;;43.47;22.67;;;3.30;99.90;;;;;;5090476;28;20201;-84
2023/02/16 04:00:53;;;;;;;43.40;23.07;;;3.20;99.90;;;;;;5090019;28;20209;-84
2023/02/16 04:03:20;;;;;;;41.27;22.43;;;3.10;99.90;;;;;;5094927;28;20189;-84
2023/02/16 04:05:48;;;;;;;49.67;23.23;;;3.10;99.90;;;;;;5093845;28;20210;-84
2023/02/16 04:08:14;;;;;;;46.30;23.97;;;3.60;99.90;;;;;;5094693;28;20228;-84
2023/02/16 04:10:41;;;;;;;45.60;24.40;;;3.60;99.90;;;;;;5094776;28;20213;-83
2023/02/16 04:13:07;;;;;;;47.57;23.37;;;3.40;99.90;;;;;;5094612;28;20194;-84
2023/02/16 04:15:35;;;;;;;51.20;25.83;;;3.50;99.90;;;;;;5095411;28;20618;-84
2023/02/16 04:18:02;;;;;;;48.70;23.50;;;3.80;99.90;;;;;;5094067;28;20214;-83
2023/02/16 04:20:31;;;;;;;46.03;23.70;;;3.80;99.90;;;;;;5094240;28;20209;-85
2023/02/16 04:22:59;;;;;;;45.50;23.20;;;3.80;99.90;;;;;;5094398;28;20197;-84
2023/02/16 04:25:26;;;;;;;44.63;22.70;;;3.70;99.90;;;;;;5093932;28;20194;-83
2023/02/16 04:27:53;;;;;;;48.03;24.80;;;3.50;99.90;;;;;;5090628;28;20694;-84
2023/02/16 04:30:22;;;;;;;48.13;24.33;;;3.60;99.90;;;;;;5083477;28;20198;-84
2023/02/16 04:32:49;;;;;;;47.03;22.63;;;3.50;99.90;;;;;;5086727;28;20312;-84
2023/02/16 04:35:16;;;;;;;44.43;22.73;;;3.50;99.90;;;;;;5093371;28;20590;-84
2023/02/16 04:37:43;;;;;;;43.10;22.00;;;3.50;99.90;;;;;;5094707;28;20258;-84
2023/02/16 04:40:13;;;;;;;49.90;25.17;;;3.50;99.90;;;;;;5092774;28;20193;-84
2023/02/16 04:42:40;;;;;;;46.27;23.70;;;3.60;99.90;;;;;;5094325;28;20221;-86
2023/02/16 04:45:08;;;;;;;45.43;24.17;;;3.50;99.90;;;;;;5095173;28;20201;-84
2023/02/16 04:47:35;;;;;;;45.67;22.10;;;3.40;99.90;;;;;;5095370;28;20304;-85
2023/02/16 04:50:02;;;;;;;48.93;24.20;;;3.30;99.90;;;;;;5095291;28;20216;-84
2023/02/16 04:52:28;;;;;;;45.77;24.00;;;3.20;99.90;;;;;;5094751;28;20232;-85
2023/02/16 04:54:55;;;;;;;48.73;24.20;;;3.10;99.90;;;;;;5095922;28;20212;-85
2023/02/16 04:57:25;;;;;;;45.67;23.30;;;3.10;99.90;;;;;;5095399;28;20346;-84
2023/02/16 04:59:51;;;;;;;46.43;23.80;;;3.10;99.90;;;;;;5095308;28;20583;-84
2023/02/16 05:02:18;;;;;;;45.53;22.90;;;3.00;99.90;;;;;;5094985;28;20549;-84
2023/02/16 05:04:45;;;;;;;46.77;23.87;;;3.10;99.90;;;;;;5094837;28;20255;-86
2023/02/16 05:07:12;;;;;;;49.67;24.53;;;3.20;99.90;;;;;;5095090;28;20232;-85
2023/02/16 05:09:39;;;;;;;45.63;23.67;;;3.10;99.90;;;;;;5094455;28;20212;-85
2023/02/16 05:14:52;;;;;;;43.77;22.17;;;2.90;99.90;;;;;;5094558;28;20196;-84
2023/02/16 05:17:21;;;;;;;46.37;22.67;;;2.80;99.90;;;;;;5095098;28;20226;-84
2023/02/16 05:19:50;;;;;;;44.53;24.30;;;2.80;99.90;;;;;;5094554;28;20202;-84
2023/02/16 05:22:18;;;;;;;45.10;25.30;;;2.60;99.90;;;;;;5094763;28;20641;-84
2023/02/16 05:24:45;;;;;;;47.50;22.97;;;2.60;99.90;;;;;;5094167;28;20209;-84
2023/02/16 05:27:14;;;;;;;47.90;22.90;;;2.40;99.90;;;;;;5094729;28;20232;-84
2023/02/16 05:29:42;;;;;;;41.43;24.67;;;2.30;99.90;;;;;;5094383;28;20227;-84
2023/02/16 05:32:10;;;;;;;45.27;27.57;;;2.30;99.90;;;;;;5094452;28;20594;-85
2023/02/16 05:34:37;;;;;;;43.63;23.57;;;2.20;99.90;;;;;;5094589;28;20203;-84
2023/02/16 05:37:04;;;;;;;46.60;24.40;;;2.20;99.90;;;;;;5094432;28;20308;-84
2023/02/16 05:39:30;;;;;;;41.47;22.03;;;2.10;99.90;;;;;;5094356;28;20211;-84
2023/02/16 05:41:57;;;;;;;43.57;22.07;;;1.90;99.90;;;;;;5094682;28;20201;-85
2023/02/16 05:44:24;;;;;;;45.00;23.03;;;1.90;99.90;;;;;;5094822;28;20210;-84
2023/02/16 05:46:51;;;;;;;45.83;23.23;;;2.10;99.90;;;;;;5095365;28;20228;-84
2023/02/16 05:49:19;;;;;;;43.37;21.93;;;2.20;99.90;;;;;;5095336;28;20330;-86
2023/02/16 05:51:46;;;;;;;45.20;22.90;;;2.40;99.90;;;;;;5095127;28;20221;-83
2023/02/16 05:54:16;;;;;;;45.10;23.53;;;2.30;99.90;;;;;;5093817;28;20212;-84
2023/02/16 05:56:44;;;;;;;42.50;22.53;;;2.50;99.90;;;;;;5094545;28;20224;-84
2023/02/16 05:59:11;;;;;;;47.73;22.97;;;2.50;99.90;;;;;;5095034;28;20662;-84
2023/02/16 06:01:39;;;;;;;44.30;22.47;;;2.40;99.90;;;;;;5095148;28;20198;-85
2023/02/16 06:04:07;;;;;;;42.47;22.13;;;2.30;99.90;;;;;;5094259;28;20238;-84
2023/02/16 06:06:36;;;;;;;43.60;22.20;;;2.30;99.90;;;;;;5094159;28;20641;-85
2023/02/16 06:09:03;;;;;;;41.37;21.17;;;2.20;99.90;;;;;;5094493;28;20194;-85
2023/02/16 06:11:35;;;;;;;41.83;24.27;;;2.10;99.90;;;;;;5094197;28;20669;-84
2023/02/16 06:14:03;;;;;;;42.70;23.03;;;2.10;99.90;;;;;;5093820;28;20210;-85
2023/02/16 06:16:31;;;;;;;43.63;21.90;;;1.90;99.90;;;;;;5094077;28;20217;-84
2023/02/16 06:18:59;;;;;;;42.83;21.70;;;1.90;99.90;;;;;;5094086;28;20288;-85
2023/02/16 06:21:26;;;;;;;42.93;21.67;;;2.10;99.90;;;;;;5096126;28;20265;-84
2023/02/16 06:23:55;;;;;;;40.47;21.13;;;2.10;99.90;;;;;;5098273;28;20206;-84
2023/02/16 06:26:21;;;;;;;41.13;21.07;;;2.00;99.90;;;;;;5097538;28;20314;-84
2023/02/16 06:28:48;;;;;;;44.60;21.07;;;2.10;99.90;;;;;;5098185;28;20203;-84
2023/02/16 06:31:15;;;;;;;39.83;24.00;;;2.10;99.90;;;;;;5093427;28;20281;-84
2023/02/16 06:33:42;;;;;;;40.20;24.13;;;2.00;99.90;;;;;;5095903;28;20204;-85
2023/02/16 06:36:10;;;;;;;42.00;21.77;;;1.90;99.90;;;;;;5096012;28;20228;-84
2023/02/16 06:38:36;;;;;;;40.53;23.37;;;2.20;99.90;;;;;;5101928;28;20198;-85
2023/02/16 06:41:05;;;;;;;42.80;20.50;;;2.20;99.90;;;;;;5077117;28;20202;-85
2023/02/16 06:43:32;;;;;;;41.80;21.77;;;2.30;99.90;;;;;;5115469;28;20264;-84
2023/02/16 06:45:58;;;;;;;37.07;20.37;;;2.40;99.90;;;;;;5103983;28;20208;-84
2023/02/16 06:48:25;;;;;;;40.63;23.33;;;2.10;99.90;;;;;;5094305;28;20205;-85
2023/02/16 06:50:52;;;;;;;40.87;24.10;;;2.20;99.90;;;;;;5089051;28;20205;-84
2023/02/16 06:53:20;;;;;;;41.37;24.30;;;2.30;99.90;;;;;;5088688;28;20218;-84
2023/02/16 06:55:47;;;;;;;42.70;21.50;;;2.40;99.90;;;;;;5089286;28;20673;-85
2023/02/16 06:58:16;;;;;;;40.20;21.53;;;2.40;99.90;;;;;;5090724;28;20249;-85
2023/02/16 07:00:42;;;;;;;40.97;20.43;;;2.30;99.90;;;;;;5096007;28;20209;-84
2023/02/16 07:03:09;;;;;;;40.43;20.10;;;2.30;99.90;;;;;;5080671;28;20187;-85
2023/02/16 07:05:36;;;;;;;39.87;20.40;;;2.50;99.90;;;;;;5075291;28;20202;-84
2023/02/16 07:08:03;;;;;;;38.97;20.63;;;2.70;99.90;;;;;;5093681;28;20252;-85
2023/02/16 07:10:30;;;;;;;39.87;21.00;;;2.70;99.90;;;;;;5096722;28;20197;-85
2023/02/16 07:12:57;;;;;;;39.87;20.93;;;2.70;99.90;;;;;;5096364;28;20217;-84
2023/02/16 07:15:25;;;;;;;40.80;19.87;;;2.80;99.90;;;;;;5096457;28;20202;-85
2023/02/16 07:17:52;;;;;;;41.30;20.80;;;2.90;99.90;;;;;;5095331;28;20309;-84
2023/02/16 07:20:19;;;;;;;38.87;20.87;;;3.10;99.90;;;;;;5096545;28;20209;-85
2023/02/16 07:22:45;;;;;;;39.00;20.67;;;3.10;99.90;;;;;;5097212;28;20289;-85
2023/02/16 07:25:12;;;;;;;36.93;19.47;;;3.30;99.90;;;;;;5097884;28;20215;-84
2023/02/16 07:27:39;;;;;;;39.77;20.93;;;3.10;99.90;;;;;;5096478;28;20226;-85
2023/02/16 07:30:07;;;;;;;40.83;21.00;;;3.20;99.90;;;;;;5096337;28;20201;-84
2023/02/16 07:32:35;;;;;;;39.93;20.20;;;3.40;99.90;;;;;;5095347;28;20273;-84
2023/02/16 07:35:02;;;;;;;34.87;18.03;;;3.50;99.90;;;;;;5096446;28;20217;-84
2023/02/16 07:37:29;;;;;;;36.47;18.70;;;3.70;99.90;;;;;;5076887;28;20248;-84
2023/02/16 07:39:56;;;;;;;37.33;20.17;;;3.70;99.90;;;;;;5075736;28;20202;-85
2023/02/16 07:42:23;;;;;;;37.60;19.70;;;3.80;99.90;;;;;;5090689;28;20527;-85
2023/02/16 07:44:49;;;;;;;37.03;19.20;;;3.80;99.90;;;;;;5094887;28;20200;-84
2023/02/16 07:47:16;;;;;;;37.80;20.07;;;3.80;99.90;;;;;;5095396;28;20221;-84
2023/02/16 07:49:45;;;;;;;38.80;19.50;;;3.90;99.90;;;;;;5096106;28;20201;-85
2023/02/16 07:52:11;;;;;;;39.03;20.10;;;4.40;99.90;;;;;;5094154;28;20222;-84
2023/02/16 07:54:38;;;;;;;37.53;19.20;;;4.90;99.90;;;;;;5095962;28;20608;-85
2023/02/16 07:57:05;;;;;;;35.53;18.53;;;5.30;99.90;;;;;;5095894;28;20224;-85
2023/02/16 07:59:32;;;;;;;31.33;17.00;;;6.00;99.90;;;;;;5094612;28;20216;-85
2023/02/16 08:01:59;;;;;;;34.23;17.10;;;6.30;99.90;;;;;;5095459;28;20213;-85
2023/02/16 08:04:26;;;;;;;31.53;17.70;;;6.30;99.90;;;;;;5094252;28;20637;-85
2023/02/16 08:06:54;;;;;;;33.43;17.40;;;6.70;99.90;;;;;;5087186;28;20237;-85
2023/02/16 08:09:21;;;;;;;36.60;18.80;;;6.50;99.90;;;;;;5080352;28;20205;-85
2023/02/16 08:11:48;;;;;;;35.87;17.37;;;6.30;99.90;;;;;;5082741;28;20194;-84
2023/02/16 08:14:15;;;;;;;33.30;18.30;;;6.30;99.90;;;;;;5078775;28;20288;-84
2023/02/16 08:16:42;;;;;;;29.53;16.93;;;6.10;99.90;;;;;;5095722;28;20229;-85
2023/02/16 08:19:11;;;;;;;35.43;18.27;;;6.00;99.90;;;;;;5095645;28;20658;-83
2023/02/16 08:21:38;;;;;;;34.70;18.23;;;5.40;99.90;;;;;;5094846;28;20709;-83
2023/02/16 08:24:08;;;;;;;32.67;18.17;;;5.40;99.90;;;;;;5087915;28;20209;-83
2023/02/16 08:26:37;;;;;;;32.17;17.80;;;5.20;99.90;;;;;;5087013;28;20218;-84
2023/02/16 08:29:05;;;;;;;36.17;18.43;;;5.10;99.90;;;;;;5089702;28;20204;-85
2023/02/16 08:31:35;;;;;;;35.67;18.63;;;5.10;99.90;;;;;;5088211;28;20499;-83
2023/02/16 08:34:02;;;;;;;31.50;17.97;;;5.10;99.90;;;;;;5093609;28;20228;-84
2023/02/16 08:36:32;;;;;;;33.97;16.43;;;5.20;99.90;;;;;;5093241;28;20236;-83
2023/02/16 08:39:00;;;;;;;32.43;16.93;;;5.20;99.90;;;;;;5093703;28;20205;-84
2023/02/16 08:41:33;;;;;;;33.73;18.00;;;5.20;99.90;;;;;;5085924;28;20197;-85
2023/02/16 08:44:02;;;;;;;33.67;17.20;;;5.50;99.90;;;;;;5093239;28;20288;-84
2023/02/16 08:46:31;;;;;;;32.87;17.33;;;5.60;99.90;;;;;;5090655;28;20226;-83
2023/02/16 08:48:59;;;;;;;34.73;18.27;;;5.60;99.90;;;;;;5093115;28;20212;-83
2023/02/16 08:51:28;;;;;;;33.00;18.00;;;5.40;99.90;;;;;;5085709;28;20292;-82
2023/02/16 08:53:56;;;;;;;33.37;16.63;;;5.40;99.90;;;;;;5093123;28;20228;-83
2023/02/16 08:56:24;;;;;;;33.30;17.10;;;6.00;99.90;;;;;;5086697;28;20685;-85
2023/02/16 08:58:53;;;;;;;32.60;16.97;;;6.30;99.90;;;;;;5094540;28;20201;-84
2023/02/16 09:01:19;;;;;;;33.23;17.77;;;6.10;99.90;;;;;;5102713;28;20283;-84
2023/02/16 09:03:47;;;;;;;30.17;17.00;;;6.60;99.90;;;;;;5085796;28;20280;-86
2023/02/16 09:06:16;;;;;;;32.10;17.63;;;6.90;99.90;;;;;;5081509;28;20224;-85
2023/02/16 09:08:43;;;;;;;31.27;16.13;;;7.00;99.90;;;;;;5088272;28;20275;-84
2023/02/16 09:11:13;;;;;;;30.03;17.07;;;7.10;99.90;;;;;;5088779;28;20531;-84
2023/02/16 09:13:40;;;;;;;31.63;17.67;;;7.20;99.90;;;;;;5086088;28;20224;-84
2023/02/16 09:16:11;;;;;;;34.90;18.63;;;7.00;99.90;;;;;;5095650;28;20205;-84
2023/02/16 09:18:39;;;;;;;30.37;16.70;;;6.90;99.90;;;;;;5090294;28;20205;-85
2023/02/16 09:21:10;;;;;;;28.60;17.23;;;6.90;99.90;;;;;;5090019;28;20231;-84
2023/02/16 09:23:37;;;;;;;33.70;18.07;;;7.00;99.90;;;;;;5089916;28;20684;-83
2023/02/16 09:26:06;;;;;;;31.47;17.97;;;7.20;99.90;;;;;;5097879;28;20209;-85
2023/02/16 09:28:33;;;;;;;31.23;17.57;;;7.20;99.90;;;;;;5090692;28;20618;-85
2023/02/16 09:31:00;;;;;;;29.30;17.10;;;7.20;99.90;;;;;;5092624;28;20197;-85
2023/02/16 09:33:29;;;;;;;31.67;18.20;;;7.10;99.90;;;;;;5091119;28;20248;-85
2023/02/16 09:35:55;;;;;;;28.47;16.53;;;7.00;99.90;;;;;;5088420;28;20288;-85
2023/02/16 09:38:23;;;;;;;31.07;16.80;;;7.00;99.90;;;;;;5088136;28;20266;-85
2023/02/16 09:40:50;;;;;;;30.13;17.10;;;6.90;99.90;;;;;;5090180;28;20554;-86
2023/02/16 09:43:35;;;;;;;32.47;18.67;;;6.90;99.90;;;;;;5088517;28;20202;-85
2023/02/16 09:46:03;;;;;;;30.33;16.83;;;6.90;99.90;;;;;;5090034;28;20198;-86
2023/02/16 09:48:37;;;;;;;31.97;17.53;;;7.00;99.90;;;;;;5086841;28;20246;-85
2023/02/16 09:51:07;;;;;;;32.87;18.57;;;7.10;99.90;;;;;;5090578;28;20209;-85
2023/02/16 09:53:38;;;;;;;32.20;17.53;;;7.20;99.90;;;;;;5086609;28;20222;-84
2023/02/16 09:56:14;;;;;;;29.70;17.23;;;7.40;99.90;;;;;;5087810;28;20286;-85
2023/02/16 09:58:48;;;;;;;29.87;17.93;;;7.40;99.90;;;;;;5092077;28;20236;-85
2023/02/16 10:01:26;;;;;;;31.40;17.47;;;7.50;99.90;;;;;;5094998;28;20207;-85
2023/02/16 10:04:05;;;;;;;30.43;17.73;;;7.50;99.90;;;;;;5089074;28;20565;-85
2023/02/16 10:06:49;;;;;;;32.60;18.10;;;7.30;99.90;;;;;;5092355;28;20233;-85
2023/02/16 10:09:18;;;;;;;31.23;17.00;;;7.30;99.90;;;;;;5093430;28;20201;-84
2023/02/16 10:11:49;;;;;;;31.63;17.40;;;7.40;99.90;;;;;;5090667;28;20198;-85
2023/02/16 10:14:24;;;;;;;30.43;17.53;;;7.30;99.90;;;;;;5099327;28;20222;-86
2023/02/16 10:16:56;;;;;;;30.03;15.93;;;7.40;99.90;;;;;;5091646;28;20252;-85
2023/02/16 10:19:30;;;;;;;31.37;18.10;;;7.50;99.90;;;;;;5088411;28;20203;-85
2023/02/16 10:22:02;;;;;;;29.27;17.60;;;7.60;99.90;;;;;;5090693;28;20201;-85
2023/02/16 10:24:33;;;;;;;31.47;17.77;;;7.70;99.90;;;;;;5091622;28;20201;-85
2023/02/16 10:27:06;;;;;;;29.87;16.90;;;7.70;99.90;;;;;;5094287;28;20217;-84
2023/02/16 10:29:33;;;;;;;33.03;16.47;;;7.80;99.90;;;;;;5099008;28;20209;-84
2023/02/16 10:32:12;;;;;;;32.47;17.23;;;7.60;99.90;;;;;;5098551;28;20220;-85
2023/02/16 10:34:48;;;;;;;28.43;16.40;;;7.70;99.90;;;;;;5091619;28;20593;-85
2023/02/16 10:37:29;;;;;;;31.07;17.03;;;7.70;99.90;;;;;;5097391;28;20778;-85
2023/02/16 10:40:14;;;;;;;30.73;17.80;;;7.60;99.90;;;;;;5092768;28;20202;-85
2023/02/16 10:42:46;;;;;;;33.87;18.43;;;7.70;99.90;;;;;;5098780;28;20202;-84
2023/02/16 10:45:22;;;;;;;31.07;18.30;;;7.70;99.90;;;;;;5095645;28;20237;-86
2023/02/16 10:47:50;;;;;;;32.80;17.60;;;7.70;99.90;;;;;;5087261;28;20228;-84
2023/02/16 10:50:24;;;;;;;29.43;17.10;;;7.60;99.90;;;;;;5091557;28;20214;-85
2023/02/16 10:52:54;;;;;;;31.80;17.37;;;7.60;99.90;;;;;;5091435;28;20225;-85
2023/02/16 10:55:21;;;;;;;33.70;17.43;;;7.70;99.90;;;;;;5102446;28;20213;-85
2023/02/16 10:57:53;;;;;;;29.83;16.87;;;7.80;99.90;;;;;;5087078;28;20222;-84
2023/02/16 11:00:26;;;;;;;33.03;18.63;;;7.90;99.90;;;;;;5090355;28;20193;-85
2023/02/16 11:02:53;;;;;;;31.20;18.50;;;8.10;99.90;;;;;;5087146;28;20650;-85
2023/02/16 11:05:36;;;;;;;29.03;17.33;;;8.20;99.90;;;;;;5094328;28;20201;-84
2023/02/16 11:08:05;;;;;;;32.90;17.23;;;8.30;99.90;;;;;;5091808;28;20693;-86
2023/02/16 11:10:38;;;;;;;32.60;18.37;;;8.60;99.90;;;;;;5100893;28;20201;-84
2023/02/16 11:13:07;;;;;;;28.90;17.07;;;8.60;99.90;;;;;;5098103;28;20221;-85
2023/02/16 11:15:35;;;;;;;30.30;17.27;;;8.70;99.90;;;;;;5095126;28;20206;-84
2023/02/16 11:18:06;;;;;;;29.37;17.53;;;8.70;99.90;;;;;;5095633;28;20221;-84
2023/02/16 11:20:53;;;;;;;29.97;17.43;;;8.60;99.90;;;;;;5096087;28;20202;-84
2023/02/16 11:23:25;;;;;;;26.90;16.20;;;8.40;99.90;;;;;;5086547;28;20205;-84
2023/02/16 11:25:58;;;;;;;29.03;17.37;;;8.50;99.90;;;;;;5085421;28;20202;-83
2023/02/16 11:28:31;;;;;;;28.17;16.53;;;8.30;99.90;;;;;;5099248;28;20197;-84
2023/02/16 11:31:12;;;;;;;30.03;18.27;;;8.10;99.90;;;;;;5092980;28;20216;-84
2023/02/16 11:33:40;;;;;;;29.50;17.17;;;8.00;99.90;;;;;;5092203;28;20241;-86
2023/02/16 11:36:21;;;;;;;29.43;17.33;;;8.00;99.90;;;;;;5090969;28;20288;-85
2023/02/16 11:38:58;;;;;;;32.50;17.93;;;7.90;99.90;;;;;;5085628;28;20204;-86
2023/02/16 11:41:26;;;;;;;31.10;17.43;;;8.00;99.90;;;;;;5099156;28;20669;-87
2023/02/16 11:43:54;;;;;;;28.97;16.47;;;8.00;99.90;;;;;;5093429;28;20197;-87
2023/02/16 11:46:22;;;;;;;30.53;17.93;;;8.00;99.90;;;;;;5091117;28;20292;-86
2023/02/16 11:48:50;;;;;;;28.37;17.10;;;8.10;99.90;;;;;;5085942;28;20577;-85
2023/02/16 11:51:32;;;;;;;28.53;16.83;;;8.10;99.90;;;;;;5099586;28;20273;-85
2023/02/16 11:54:04;;;;;;;29.77;17.90;;;8.30;99.90;;;;;;5097743;28;20435;-85
2023/02/16 11:56:33;;;;;;;28.80;16.83;;;8.20;99.90;;;;;;5092204;28;20226;-86
2023/02/16 11:59:18;;;;;;;29.13;17.60;;;8.30;99.90;;;;;;5093143;28;20206;-87
2023/02/16 12:02:35;;;;;;;29.73;16.30;;;8.30;99.90;;;;;;5094298;28;20719;-85
2023/02/16 12:05:19;;;;;;;30.23;16.87;;;8.30;99.90;;;;;;5013393;28;20203;-86
2023/02/16 12:08:14;;;;;;;30.90;17.67;;;8.30;99.90;;;;;;5009763;28;20322;-86
2023/02/16 12:10:50;;;;;;;27.03;16.03;;;8.30;99.90;;;;;;5083370;28;20209;-85
2023/02/16 12:13:26;;;;;;;28.67;16.73;;;8.30;99.90;;;;;;5092313;28;20633;-85
2023/02/16 12:16:01;;;;;;;31.10;16.03;;;8.30;99.90;;;;;;5094774;28;20209;-87
2023/02/16 12:18:37;;;;;;;29.80;16.90;;;8.30;99.90;;;;;;5087068;28;20189;-85
2023/02/16 12:21:12;;;;;;;32.53;17.63;;;8.40;99.90;;;;;;5088354;28;20205;-86
2023/02/16 12:23:48;;;;;;;27.83;16.60;;;8.40;99.90;;;;;;5086387;28;20201;-85
2023/02/16 12:26:32;;;;;;;28.93;16.70;;;8.40;99.90;;;;;;5075628;28;20216;-86
2023/02/16 12:29:20;;;;;;;25.37;15.97;;;8.50;99.90;;;;;;5074315;28;20285;-85
2023/02/16 12:31:59;;;;;;;27.40;15.77;;;8.70;99.90;;;;;;5093394;28;20213;-85
2023/02/16 12:34:35;;;;;;;27.70;15.27;;;9.20;99.90;;;;;;5087345;28;20230;-84
2023/02/16 12:37:07;;;;;;;27.67;16.83;;;9.70;99.90;;;;;;5092206;28;20232;-85
2023/02/16 12:39:47;;;;;;;27.43;16.63;;;10.00;1.00;;;;;;5082623;28;20202;-86
2023/02/16 12:42:41;;;;;;;28.37;16.63;;;10.10;1.00;;;;;;5073990;28;20183;-85
2023/02/16 12:45:14;;;;;;;27.30;16.87;;;9.60;1.00;;;;;;5074046;28;20206;-88
2023/02/16 12:47:44;;;;;;;28.07;16.20;;;9.40;1.00;;;;;;5073481;28;20309;-88
2023/02/16 12:50:19;;;;;;;26.90;16.73;;;9.80;1.00;;;;;;5078291;28;20209;-86
2023/02/16 12:52:52;;;;;;;32.30;18.63;;;9.80;1.00;;;;;;5091234;28;20209;-87
2023/02/16 12:55:25;;;;;;;28.20;16.97;;;9.30;1.00;;;;;;5092292;28;20226;-86
2023/02/16 12:58:03;;;;;;;28.13;17.33;;;9.60;1.00;;;;;;5092371;28;20467;-87
2023/02/16 13:00:39;;;;;;;26.43;15.93;;;9.60;1.00;;;;;;5093172;28;20273;-86
2023/02/16 13:03:17;;;;;;;26.77;15.90;;;9.80;1.00;;;;;;5092728;28;20197;-87
2023/02/16 13:05:47;;;;;;;27.83;16.23;;;9.50;1.00;;;;;;5080024;28;20206;-85
2023/02/16 13:08:21;;;;;;;27.07;16.60;;;9.50;1.00;;;;;;5082388;28;20218;-87
2023/02/16 13:10:55;;;;;;;25.60;15.27;;;9.40;1.00;;;;;;5088996;28;20202;-88
2023/02/16 13:13:26;;;;;;;26.17;16.27;;;9.40;1.00;;;;;;5094262;28;20677;-87
2023/02/16 13:16:00;;;;;;;26.93;16.23;;;9.40;1.00;;;;;;5085418;28;20198;-87
2023/02/16 13:18:30;;;;;;;27.00;16.23;;;9.50;1.00;;;;;;5086386;28;20580;-85
2023/02/16 13:21:03;;;;;;;24.67;14.97;;;9.40;1.00;;;;;;5078160;28;20226;-85
2023/02/16 13:23:58;;;;;;;27.17;15.57;;;9.30;1.00;;;;;;5085284;28;20207;-87
2023/02/16 13:26:39;;;;;;;25.37;15.07;;;9.30;1.00;;;;;;5085527;28;20232;-85
2023/02/16 13:29:40;;;;;;;30.27;15.97;;;9.20;1.00;;;;;;5089482;28;20300;-86
2023/02/16 13:32:27;;;;;;;24.83;15.60;;;9.10;1.00;;;;;;5051131;28;20194;-86
2023/02/16 13:35:06;;;;;;;25.83;15.17;;;9.10;1.00;;;;;;5093082;28;20218;-88
2023/02/16 13:37:57;;;;;;;27.70;16.23;;;8.90;1.00;;;;;;5094480;28;20249;-87